createdAt,value
2022-12-18T00:01:17.744Z,4.22
2022-12-18T00:03:45.284Z,4.65
2022-12-18T00:06:12.727Z,5.38
2022-12-18T00:08:39.508Z,4.60
2022-12-18T00:11:08.139Z,6.13
2022-12-18T00:13:35.414Z,5.10
2022-12-18T00:16:04.285Z,5.10
2022-12-18T00:18:30.928Z,5.32
2022-12-18T00:21:01.672Z,4.63
2022-12-18T00:23:29.459Z,5.15
2022-12-18T00:25:59.381Z,5.10
2022-12-18T00:28:25.929Z,5.43
2022-12-18T00:30:59.842Z,4.45
2022-12-18T00:33:26.357Z,4.63
2022-12-18T00:35:52.773Z,5.13
2022-12-18T00:38:19.296Z,4.50
2022-12-18T00:40:45.757Z,4.65
2022-12-18T00:43:12.268Z,5.07
2022-12-18T00:45:39.382Z,4.30
2022-12-18T00:48:06.088Z,5.03
2022-12-18T00:50:32.563Z,3.80
2022-12-18T00:52:59.000Z,3.83
2022-12-18T00:55:25.475Z,3.88
2022-12-18T00:57:53.338Z,3.65
2022-12-18T01:00:19.946Z,4.40
2022-12-18T01:02:46.655Z,3.53
2022-12-18T01:05:14.084Z,3.47
2022-12-18T01:07:40.700Z,3.35
2022-12-18T01:10:09.187Z,3.58
2022-12-18T01:12:36.012Z,3.45
2022-12-18T01:15:02.987Z,3.60
2022-12-18T01:17:29.401Z,4.13
2022-12-18T01:19:55.884Z,3.30
2022-12-18T01:22:22.302Z,3.38
2022-12-18T01:24:48.766Z,2.45
2022-12-18T01:27:15.356Z,2.13
2022-12-18T01:29:41.900Z,3.25
2022-12-18T01:32:08.470Z,1.48
2022-12-18T01:34:36.969Z,3.58
2022-12-18T01:37:05.347Z,2.40
2022-12-18T01:39:32.979Z,2.53
2022-12-18T01:42:12.752Z,1.77
2022-12-18T01:44:48.637Z,2.95
2022-12-18T01:47:20.708Z,3.17
2022-12-18T01:49:47.332Z,3.72
2022-12-18T01:52:16.186Z,3.08
2022-12-18T01:54:42.746Z,2.88
2022-12-18T01:57:09.586Z,3.28
2022-12-18T01:59:37.643Z,2.35
2022-12-18T02:02:04.528Z,3.55
2022-12-18T02:04:31.119Z,3.45
2022-12-18T02:07:21.466Z,4.18
2022-12-18T02:09:55.381Z,3.25
2022-12-18T02:12:25.436Z,3.20
2022-12-18T02:15:27.706Z,2.90
2022-12-18T02:18:11.930Z,3.72
2022-12-18T02:20:58.621Z,3.38
2022-12-18T02:23:34.548Z,4.00
2022-12-18T02:26:12.259Z,3.17
2022-12-18T02:29:00.619Z,2.00
2022-12-18T02:31:31.036Z,2.75
2022-12-18T02:34:01.094Z,3.78
2022-12-18T02:36:29.730Z,3.95
2022-12-18T02:38:57.526Z,3.63
2022-12-18T02:41:24.804Z,3.17
2022-12-18T02:43:57.506Z,3.75
2022-12-18T02:46:40.669Z,3.42
2022-12-18T02:49:13.466Z,3.35
2022-12-18T02:51:42.840Z,4.10
2022-12-18T02:54:27.228Z,3.58
2022-12-18T02:56:58.735Z,2.95
2022-12-18T02:59:34.814Z,3.10
2022-12-18T03:02:38.973Z,3.28
2022-12-18T03:05:21.984Z,3.33
2022-12-18T03:07:59.350Z,3.97
2022-12-18T03:10:30.624Z,3.58
2022-12-18T03:13:07.269Z,3.35
2022-12-18T03:15:48.686Z,2.65
2022-12-18T03:18:33.772Z,4.10
2022-12-18T03:21:03.762Z,2.75
2022-12-18T03:23:35.514Z,2.53
2022-12-18T03:26:08.567Z,3.00
2022-12-18T03:28:40.760Z,1.77
2022-12-18T03:31:10.911Z,2.72
2022-12-18T03:33:48.062Z,1.60
2022-12-18T03:36:15.590Z,2.33
2022-12-18T03:38:42.267Z,3.05
2022-12-18T03:41:11.523Z,1.67
2022-12-18T03:43:53.688Z,1.23
2022-12-18T03:46:38.210Z,2.20
2022-12-18T03:49:15.571Z,3.10
2022-12-18T03:51:51.205Z,2.40
2022-12-18T03:54:19.002Z,2.92
2022-12-18T03:56:49.953Z,2.42
2022-12-18T03:59:18.986Z,3.40
2022-12-18T04:01:52.110Z,3.15
2022-12-18T04:04:20.663Z,3.10
2022-12-18T04:06:50.670Z,3.08
2022-12-18T04:09:17.217Z,3.05
2022-12-18T04:11:46.509Z,3.42
2022-12-18T04:14:17.654Z,2.92
2022-12-18T04:16:44.593Z,3.53
2022-12-18T04:19:11.022Z,2.15
2022-12-18T04:21:37.606Z,3.08
2022-12-18T04:24:04.154Z,3.10
2022-12-18T04:26:30.584Z,2.92
2022-12-18T04:28:57.006Z,2.92
2022-12-18T04:31:23.516Z,3.53
2022-12-18T04:33:50.073Z,3.42
2022-12-18T04:36:16.490Z,3.00
2022-12-18T04:38:42.887Z,3.63
2022-12-18T04:41:09.450Z,3.13
2022-12-18T04:43:36.009Z,3.13
2022-12-18T04:46:09.781Z,3.20
2022-12-18T04:48:36.657Z,2.70
2022-12-18T04:51:03.847Z,2.67
2022-12-18T04:53:30.360Z,2.72
2022-12-18T04:56:11.458Z,2.13
2022-12-18T04:58:38.762Z,2.72
2022-12-18T05:01:05.229Z,2.55
2022-12-18T05:03:32.117Z,2.20
2022-12-18T05:05:58.611Z,3.30
2022-12-18T05:08:25.109Z,2.38
2022-12-18T05:11:02.993Z,2.55
2022-12-18T05:13:29.766Z,2.60
2022-12-18T05:15:57.048Z,2.38
2022-12-18T05:18:24.904Z,2.50
2022-12-18T05:20:52.842Z,2.60
2022-12-18T05:23:20.074Z,2.08
2022-12-18T05:25:52.628Z,2.97
2022-12-18T05:28:19.633Z,2.25
2022-12-18T05:30:53.720Z,2.70
2022-12-18T05:33:21.580Z,1.70
2022-12-18T05:35:52.955Z,2.97
2022-12-18T05:38:21.168Z,2.70
2022-12-18T05:40:49.141Z,2.22
2022-12-18T05:43:20.971Z,2.30
2022-12-18T05:45:47.724Z,1.90
2022-12-18T05:48:14.237Z,2.33
2022-12-18T05:50:42.486Z,2.38
2022-12-18T05:53:09.623Z,2.22
2022-12-18T05:55:38.027Z,2.05
2022-12-18T05:58:05.632Z,2.75
2022-12-18T06:00:34.564Z,2.45
2022-12-18T06:03:01.526Z,2.30
2022-12-18T06:05:28.463Z,2.42
2022-12-18T06:07:54.955Z,2.50
2022-12-18T06:10:21.396Z,2.92
2022-12-18T06:12:47.997Z,2.72
2022-12-18T06:15:14.416Z,2.80
2022-12-18T06:17:41.236Z,3.15
2022-12-18T06:20:08.103Z,3.65
2022-12-18T06:22:35.890Z,3.17
2022-12-18T06:25:02.567Z,3.00
2022-12-18T06:27:29.447Z,3.30
2022-12-18T06:29:55.915Z,3.47
2022-12-18T06:32:22.345Z,2.83
2022-12-18T06:34:48.780Z,3.05
2022-12-18T06:37:15.483Z,3.15
2022-12-18T06:39:41.891Z,3.20
2022-12-18T06:42:08.361Z,3.13
2022-12-18T06:44:34.889Z,3.00
2022-12-18T06:47:01.357Z,2.72
2022-12-18T06:49:30.587Z,2.90
2022-12-18T06:51:57.366Z,3.10
2022-12-18T06:54:23.819Z,3.03
2022-12-18T06:56:50.489Z,3.50
2022-12-18T06:59:17.567Z,3.55
2022-12-18T07:01:44.216Z,2.55
2022-12-18T07:04:10.850Z,3.05
2022-12-18T07:06:37.321Z,3.13
2022-12-18T07:09:03.853Z,2.83
2022-12-18T07:11:30.300Z,3.03
2022-12-18T07:13:56.749Z,2.58
2022-12-18T07:16:25.513Z,4.28
2022-12-18T07:18:52.789Z,2.97
2022-12-18T07:21:20.616Z,3.10
2022-12-18T07:23:49.124Z,2.80
2022-12-18T07:26:18.670Z,3.05
2022-12-18T07:28:45.207Z,2.90
2022-12-18T07:31:21.949Z,2.83
2022-12-18T07:33:49.486Z,4.07
2022-12-18T07:36:16.413Z,2.72
2022-12-18T07:38:43.216Z,1.63
2022-12-18T07:41:12.368Z,1.88
2022-12-18T07:43:39.934Z,2.63
2022-12-18T07:46:08.558Z,1.83
2022-12-18T07:48:35.428Z,3.00
2022-12-18T07:51:07.159Z,1.80
2022-12-18T07:53:35.318Z,3.33
2022-12-18T07:56:26.667Z,3.63
2022-12-18T07:58:52.678Z,1.85
2022-12-18T08:01:19.223Z,2.88
2022-12-18T08:03:47.841Z,3.60
2022-12-18T08:06:14.764Z,2.13
2022-12-18T08:08:43.129Z,3.83
2022-12-18T08:11:09.746Z,4.88
2022-12-18T08:13:36.544Z,5.28
2022-12-18T08:16:06.154Z,3.15
2022-12-18T08:18:38.918Z,2.75
2022-12-18T08:21:29.375Z,4.15
2022-12-18T08:23:57.829Z,3.40
2022-12-18T08:26:26.232Z,4.55
2022-12-18T08:28:55.557Z,4.15
2022-12-18T08:31:22.801Z,3.88
2022-12-18T08:33:51.981Z,4.38
2022-12-18T08:36:19.027Z,3.58
2022-12-18T08:38:45.536Z,3.63
2022-12-18T08:41:14.364Z,3.88
2022-12-18T08:44:00.372Z,2.88
2022-12-18T08:46:28.210Z,4.13
2022-12-18T08:48:56.889Z,2.88
2022-12-18T08:51:23.533Z,3.95
2022-12-18T08:53:50.017Z,3.15
2022-12-18T08:56:17.102Z,2.90
2022-12-18T08:58:44.197Z,4.13
2022-12-18T09:01:13.047Z,3.67
2022-12-18T09:03:40.418Z,2.53
2022-12-18T09:06:08.364Z,3.45
2022-12-18T09:08:37.543Z,3.38
2022-12-18T09:11:04.508Z,4.05
2022-12-18T09:13:31.361Z,3.40
2022-12-18T09:15:58.025Z,3.25
2022-12-18T09:18:25.538Z,2.65
2022-12-18T09:20:53.849Z,2.85
2022-12-18T09:23:21.444Z,3.38
2022-12-18T09:25:48.477Z,3.85
2022-12-18T09:28:17.058Z,2.65
2022-12-18T09:30:47.092Z,2.80
2022-12-18T09:33:14.833Z,2.17
2022-12-18T09:35:44.051Z,2.75
2022-12-18T09:38:19.505Z,3.97
2022-12-18T09:40:52.966Z,3.75
2022-12-18T09:43:25.652Z,2.90
2022-12-18T09:46:01.576Z,3.90
2022-12-18T09:48:50.874Z,3.75
2022-12-18T09:51:28.216Z,3.45
2022-12-18T09:54:00.159Z,3.45
2022-12-18T09:56:30.564Z,3.35
2022-12-18T09:59:00.695Z,3.17
2022-12-18T10:01:38.780Z,3.97
2022-12-18T10:04:10.259Z,4.22
2022-12-18T10:06:45.747Z,3.85
2022-12-18T10:09:54.613Z,4.20
2022-12-18T10:12:44.264Z,2.03
2022-12-18T10:15:20.663Z,3.38
2022-12-18T10:17:55.747Z,3.40
2022-12-18T10:20:33.149Z,3.75
2022-12-18T10:23:13.337Z,4.28
2022-12-18T10:26:10.585Z,2.13
2022-12-18T10:28:42.949Z,4.70
2022-12-18T10:31:24.532Z,3.50
2022-12-18T10:33:52.298Z,3.47
2022-12-18T10:36:19.060Z,5.35
2022-12-18T10:38:45.717Z,3.78
2022-12-18T10:41:18.625Z,2.97
2022-12-18T10:43:45.560Z,3.95
2022-12-18T10:46:12.212Z,3.92
2022-12-18T10:48:48.080Z,4.35
2022-12-18T10:51:40.851Z,2.90
2022-12-18T10:54:15.498Z,4.00
2022-12-18T10:56:42.635Z,3.88
2022-12-18T10:59:13.820Z,4.03
2022-12-18T11:01:53.101Z,5.00
2022-12-18T11:04:25.493Z,3.38
2022-12-18T11:06:57.321Z,3.15
2022-12-18T11:09:26.799Z,4.22
2022-12-18T11:14:26.227Z,2.17
2022-12-18T11:17:25.402Z,3.30
2022-12-18T11:22:39.170Z,3.67
2022-12-18T11:27:57.270Z,3.80
2022-12-18T11:30:28.397Z,3.55
2022-12-18T11:33:07.345Z,3.97
2022-12-18T11:35:55.655Z,3.05
2022-12-18T11:38:26.432Z,2.90
2022-12-18T11:40:59.196Z,3.28
2022-12-18T11:43:42.324Z,4.30
2022-12-18T11:46:19.365Z,2.63
2022-12-18T11:48:53.273Z,3.65
2022-12-18T11:51:29.674Z,3.25
2022-12-18T11:53:56.292Z,3.42
2022-12-18T11:56:44.455Z,3.25
2022-12-18T11:59:22.645Z,3.92
2022-12-18T12:02:04.655Z,4.28
2022-12-18T12:04:56.055Z,4.22
2022-12-18T12:07:50.132Z,4.05
2022-12-18T12:13:13.821Z,4.05
2022-12-18T12:15:54.205Z,4.35
2022-12-18T12:18:20.871Z,4.07
2022-12-18T12:21:05.366Z,3.53
2022-12-18T12:24:04.016Z,3.70
2022-12-18T12:26:40.019Z,4.45
2022-12-18T12:29:40.238Z,4.15
2022-12-18T12:32:35.201Z,4.05
2022-12-18T12:35:12.556Z,3.92
2022-12-18T12:37:42.270Z,4.43
2022-12-18T12:40:48.802Z,3.63
2022-12-18T12:43:26.812Z,3.67
2022-12-18T12:46:08.399Z,4.82
2022-12-18T12:48:38.464Z,4.13
2022-12-18T12:51:14.115Z,3.38
2022-12-18T12:53:42.819Z,4.43
2022-12-18T12:56:12.157Z,4.55
2022-12-18T12:58:39.277Z,4.65
2022-12-18T13:01:17.220Z,4.07
2022-12-18T13:04:18.654Z,5.82
2022-12-18T13:06:59.440Z,4.88
2022-12-18T13:09:25.978Z,5.47
2022-12-18T13:12:11.342Z,3.30
2022-12-18T13:14:40.855Z,5.22
2022-12-18T13:20:04.378Z,5.63
2022-12-18T13:22:40.535Z,4.35
2022-12-18T13:25:32.166Z,3.95
2022-12-18T13:28:09.968Z,3.22
2022-12-18T13:30:36.411Z,3.97
2022-12-18T13:33:15.180Z,5.88
2022-12-18T13:35:51.621Z,6.40
2022-12-18T13:38:27.257Z,6.35
2022-12-18T13:43:43.953Z,4.25
2022-12-18T13:46:26.317Z,3.63
2022-12-18T13:49:14.916Z,5.22
2022-12-18T13:51:45.066Z,5.40
2022-12-18T13:54:40.650Z,5.85
2022-12-18T13:57:25.924Z,5.80
2022-12-18T13:59:52.734Z,4.25
2022-12-18T14:02:23.837Z,5.93
2022-12-18T14:04:51.633Z,5.28
2022-12-18T14:07:21.832Z,5.32
2022-12-18T14:10:06.500Z,4.40
2022-12-18T14:13:00.916Z,4.57
2022-12-18T14:15:34.781Z,6.30
2022-12-18T14:18:15.285Z,5.25
2022-12-18T14:20:49.239Z,4.28
2022-12-18T14:23:29.471Z,6.28
2022-12-18T14:25:58.622Z,5.35
2022-12-18T14:28:29.344Z,5.75
2022-12-18T14:30:56.298Z,6.50
2022-12-18T14:33:26.410Z,6.50
2022-12-18T14:36:17.903Z,5.22
2022-12-18T14:38:50.192Z,4.13
2022-12-18T14:41:18.472Z,5.93
2022-12-18T14:43:48.035Z,6.10
2022-12-18T14:49:27.525Z,5.18
2022-12-18T14:51:56.702Z,4.90
2022-12-18T14:54:25.530Z,5.00
2022-12-18T14:57:02.890Z,5.97
2022-12-18T14:59:30.781Z,5.60
2022-12-18T15:02:20.568Z,6.18
2022-12-18T15:04:47.804Z,5.97
2022-12-18T15:07:24.708Z,6.35
2022-12-18T15:10:13.168Z,5.53
2022-12-18T15:12:42.910Z,6.18
2022-12-18T15:15:34.549Z,6.35
2022-12-18T15:18:12.856Z,6.93
2022-12-18T15:20:51.653Z,4.70
2022-12-18T15:23:31.009Z,6.15
2022-12-18T15:26:10.004Z,6.00
2022-12-18T15:28:45.942Z,6.18
2022-12-18T15:33:42.935Z,5.15
2022-12-18T15:36:14.974Z,5.30
2022-12-18T15:38:42.147Z,6.38
2022-12-18T15:41:20.093Z,5.05
2022-12-18T15:43:52.613Z,5.47
2022-12-18T15:46:24.531Z,4.93
2022-12-18T15:48:59.600Z,6.90
2022-12-18T15:51:36.843Z,3.35
2022-12-18T15:54:05.939Z,6.40
2022-12-18T15:56:51.851Z,5.78
2022-12-18T15:59:20.318Z,6.28
2022-12-18T16:01:49.764Z,3.97
2022-12-18T16:04:21.057Z,6.32
2022-12-18T16:07:13.836Z,5.43
2022-12-18T16:09:35.208Z,2.90
2022-12-18T16:12:01.781Z,4.78
2022-12-18T16:14:32.354Z,5.90
2022-12-18T16:17:01.486Z,4.65
2022-12-18T16:19:29.008Z,5.78
2022-12-18T16:21:56.957Z,8.48
2022-12-18T16:24:25.970Z,8.15
2022-12-18T16:26:54.176Z,9.40
2022-12-18T16:29:27.872Z,5.40
2022-12-18T16:31:59.108Z,6.57
2022-12-18T16:34:29.316Z,9.05
2022-12-18T16:37:05.128Z,6.80
2022-12-18T16:39:34.234Z,5.30
2022-12-18T16:42:05.761Z,4.90
2022-12-18T16:44:33.741Z,9.43
2022-12-18T16:47:02.735Z,6.93
2022-12-18T16:49:29.839Z,7.18
2022-12-18T16:51:56.404Z,7.88
2022-12-18T16:54:23.079Z,6.97
2022-12-18T16:56:51.399Z,9.00
2022-12-18T16:59:18.512Z,5.38
2022-12-18T17:01:45.153Z,6.93
2022-12-18T17:04:11.838Z,4.45
2022-12-18T17:06:44.167Z,6.30
2022-12-18T17:09:16.286Z,8.48
2022-12-18T17:11:43.487Z,8.05
2022-12-18T17:14:14.606Z,7.00
2022-12-18T17:16:41.542Z,4.68
2022-12-18T17:19:13.597Z,5.13
2022-12-18T17:21:44.675Z,6.63
2022-12-18T17:24:11.184Z,7.00
2022-12-18T17:26:37.719Z,8.57
2022-12-18T17:29:04.644Z,9.40
2022-12-18T17:31:31.373Z,7.30
2022-12-18T17:33:58.612Z,7.30
2022-12-18T17:36:28.534Z,9.57
2022-12-18T17:38:58.044Z,9.00
2022-12-18T17:41:26.056Z,7.88
2022-12-18T17:43:53.351Z,5.45
2022-12-18T17:46:20.373Z,6.72
2022-12-18T17:48:47.664Z,8.30
2022-12-18T17:51:15.453Z,9.23
2022-12-18T17:53:42.428Z,5.13
2022-12-18T17:56:13.252Z,7.40
2022-12-18T17:58:39.903Z,11.60
2022-12-18T18:01:12.671Z,8.82
2022-12-18T18:03:42.098Z,9.40
2022-12-18T18:06:09.264Z,6.00
2022-12-18T18:08:36.595Z,8.45
2022-12-18T18:11:26.622Z,8.75
2022-12-18T18:14:02.298Z,8.23
2022-12-18T18:16:40.694Z,10.27
2022-12-18T18:19:10.977Z,9.57
2022-12-18T18:21:43.282Z,8.88
2022-12-18T18:24:12.655Z,6.40
2022-12-18T18:26:39.754Z,10.52
2022-12-18T18:29:08.642Z,8.63
2022-12-18T18:31:40.721Z,8.35
2022-12-18T18:34:08.433Z,4.82
2022-12-18T18:36:35.072Z,8.18
2022-12-18T18:39:02.288Z,10.45
2022-12-18T18:41:30.688Z,10.30
2022-12-18T18:43:58.413Z,5.57
2022-12-18T18:46:26.081Z,9.27
2022-12-18T18:48:53.901Z,6.47
2022-12-18T18:51:21.862Z,9.48
2022-12-18T18:53:51.095Z,9.07
2022-12-18T18:59:07.415Z,7.28
2022-12-18T19:01:34.433Z,9.10
2022-12-18T19:04:04.204Z,6.60
2022-12-18T19:06:31.413Z,9.27
2022-12-18T19:09:01.188Z,9.63
2022-12-18T19:11:46.469Z,8.20
2022-12-18T19:14:15.294Z,7.53
2022-12-18T19:16:43.774Z,6.45
2022-12-18T19:19:11.656Z,7.65
2022-12-18T19:21:38.582Z,11.25
2022-12-18T19:24:06.648Z,10.27
2022-12-18T19:26:33.315Z,10.32
2022-12-18T19:29:08.625Z,11.10
2022-12-18T19:31:37.349Z,8.93
2022-12-18T19:34:08.367Z,10.88
2022-12-18T19:36:40.475Z,10.00
2022-12-18T19:39:12.851Z,8.07
2022-12-18T19:41:40.094Z,10.60
2022-12-18T19:44:08.662Z,5.57
2022-12-18T19:46:35.984Z,8.85
2022-12-18T19:49:04.411Z,7.90
2022-12-18T19:51:32.251Z,5.90
2022-12-18T19:54:01.702Z,7.82
2022-12-18T19:56:31.604Z,7.38
2022-12-18T20:01:26.496Z,5.13
2022-12-18T20:03:55.305Z,7.40
2022-12-18T20:06:35.394Z,10.10
2022-12-18T20:09:06.418Z,7.45
2022-12-18T20:11:35.360Z,8.82
2022-12-18T20:14:08.741Z,5.68
2022-12-18T20:16:35.672Z,9.90
2022-12-18T20:19:02.529Z,8.50
2022-12-18T20:21:29.339Z,7.78
2022-12-18T20:23:56.131Z,6.85
2022-12-18T20:26:23.971Z,8.05
2022-12-18T20:28:50.649Z,6.82
2022-12-18T20:31:17.360Z,9.38
2022-12-18T20:33:46.342Z,8.93
2022-12-18T20:36:20.132Z,10.30
2022-12-18T20:38:48.645Z,8.32
2022-12-18T20:41:18.930Z,10.07
2022-12-18T20:43:46.070Z,11.38
2022-12-18T20:46:15.097Z,6.45
2022-12-18T20:48:42.752Z,6.68
2022-12-18T20:51:11.772Z,8.75
2022-12-18T20:53:41.861Z,6.30
2022-12-18T20:56:30.674Z,7.95
2022-12-18T20:58:59.643Z,7.07
2022-12-18T21:01:28.630Z,6.15
2022-12-18T21:03:55.180Z,8.10
2022-12-18T21:06:23.088Z,7.60
2022-12-18T21:08:49.590Z,7.53
2022-12-18T21:11:40.749Z,7.72
2022-12-18T21:14:12.455Z,8.00
2022-12-18T21:16:40.183Z,8.88
2022-12-18T21:19:07.245Z,6.65
2022-12-18T21:21:35.054Z,7.80
2022-12-18T21:24:06.480Z,9.68
2022-12-18T21:26:33.748Z,9.15
2022-12-18T21:29:06.338Z,7.22
2022-12-18T21:31:35.870Z,8.88
2022-12-18T21:34:04.016Z,9.43
2022-12-18T21:36:32.158Z,6.95
2022-12-18T21:38:59.708Z,9.43
2022-12-18T21:41:45.622Z,8.50
2022-12-18T21:44:14.890Z,6.22
2022-12-18T21:46:44.434Z,7.22
2022-12-18T21:51:38.889Z,5.95
2022-12-18T21:54:05.619Z,7.25
2022-12-18T21:56:54.670Z,7.80
2022-12-18T21:59:36.130Z,7.00
2022-12-18T22:02:06.156Z,7.57
2022-12-18T22:04:33.070Z,8.63
2022-12-18T22:07:05.201Z,9.02
2022-12-18T22:09:32.347Z,7.65
2022-12-18T22:11:59.018Z,11.27
2022-12-18T22:14:26.122Z,8.00
2022-12-18T22:16:53.352Z,7.60
2022-12-18T22:19:20.518Z,9.18
2022-12-18T22:21:49.264Z,7.53
2022-12-18T22:24:24.751Z,6.70
2022-12-18T22:26:53.085Z,8.18
2022-12-18T22:29:43.325Z,8.77
2022-12-18T22:32:31.355Z,10.20
2022-12-18T22:35:08.004Z,9.68
2022-12-18T22:37:35.969Z,9.05
2022-12-18T22:40:05.145Z,8.13
2022-12-18T22:42:32.718Z,9.77
2022-12-18T22:45:00.455Z,9.30
2022-12-18T22:47:30.135Z,7.82
2022-12-18T22:49:57.499Z,7.68
2022-12-18T22:52:24.726Z,8.15
2022-12-18T22:54:53.544Z,5.47
2022-12-18T22:57:21.799Z,10.13
2022-12-18T22:59:49.372Z,8.10
2022-12-18T23:02:17.722Z,9.85
2022-12-18T23:04:45.001Z,10.52
2022-12-18T23:07:11.958Z,8.95
2022-12-18T23:09:39.507Z,6.75
2022-12-18T23:12:06.336Z,7.30
2022-12-18T23:14:32.838Z,9.10
2022-12-18T23:16:59.495Z,5.25
2022-12-18T23:19:25.965Z,6.72
2022-12-18T23:21:52.404Z,8.05
2022-12-18T23:24:21.366Z,5.15
2022-12-18T23:26:47.878Z,7.00
2022-12-18T23:29:14.316Z,7.78
2022-12-18T23:31:40.868Z,8.77
2022-12-18T23:34:08.071Z,10.43
2022-12-18T23:36:46.044Z,8.88
2022-12-18T23:39:28.608Z,6.15
2022-12-18T23:42:00.487Z,8.88
2022-12-18T23:44:27.665Z,7.72
2022-12-18T23:46:54.552Z,8.30
2022-12-18T23:49:21.127Z,5.90
2022-12-18T23:51:47.791Z,6.75
2022-12-18T23:54:14.270Z,9.55
2022-12-18T23:56:40.849Z,6.13
2022-12-18T23:59:07.273Z,6.50
